sensor_id;sensor_type;location;lat;lon;timestamp;P1;durP1;ratioP1;P2;durP2;ratioP2
51272;SDS011;37345;59.828;30.328;2022-10-17T00:00:24;4.80;;;3.47;;
51272;SDS011;37345;59.828;30.328;2022-10-17T00:02:50;5.00;;;3.92;;
51272;SDS011;37345;59.828;30.328;2022-10-17T00:05:19;4.20;;;3.78;;
51272;SDS011;37345;59.828;30.328;2022-10-17T00:07:45;5.73;;;3.77;;
51272;SDS011;37345;59.828;30.328;2022-10-17T00:10:11;5.55;;;4.05;;
51272;SDS011;37345;59.828;30.328;2022-10-17T00:12:37;5.30;;;3.90;;
51272;SDS011;37345;59.828;30.328;2022-10-17T00:15:03;4.85;;;3.72;;
51272;SDS011;37345;59.828;30.328;2022-10-17T00:17:31;5.72;;;4.10;;
51272;SDS011;37345;59.828;30.328;2022-10-17T00:19:57;6.70;;;3.70;;
51272;SDS011;37345;59.828;30.328;2022-10-17T00:22:24;5.05;;;3.80;;
51272;SDS011;37345;59.828;30.328;2022-10-17T00:24:50;6.18;;;3.90;;
51272;SDS011;37345;59.828;30.328;2022-10-17T00:27:16;5.75;;;4.28;;
51272;SDS011;37345;59.828;30.328;2022-10-17T00:29:42;6.07;;;4.30;;
51272;SDS011;37345;59.828;30.328;2022-10-17T00:32:12;5.85;;;3.90;;
51272;SDS011;37345;59.828;30.328;2022-10-17T00:34:38;5.43;;;4.07;;
51272;SDS011;37345;59.828;30.328;2022-10-17T00:37:07;5.22;;;3.70;;
51272;SDS011;37345;59.828;30.328;2022-10-17T00:39:33;5.40;;;4.07;;
51272;SDS011;37345;59.828;30.328;2022-10-17T00:42:00;5.32;;;4.00;;
51272;SDS011;37345;59.828;30.328;2022-10-17T00:46:55;5.63;;;4.05;;
51272;SDS011;37345;59.828;30.328;2022-10-17T00:49:22;5.07;;;3.40;;
51272;SDS011;37345;59.828;30.328;2022-10-17T00:51:59;5.80;;;3.90;;
51272;SDS011;37345;59.828;30.328;2022-10-17T00:54:27;5.80;;;3.70;;
51272;SDS011;37345;59.828;30.328;2022-10-17T00:56:55;9.57;;;3.65;;
51272;SDS011;37345;59.828;30.328;2022-10-17T00:59:21;5.63;;;3.80;;
51272;SDS011;37345;59.828;30.328;2022-10-17T01:01:51;6.85;;;3.60;;
51272;SDS011;37345;59.828;30.328;2022-10-17T01:04:19;6.28;;;3.95;;
51272;SDS011;37345;59.828;30.328;2022-10-17T01:06:45;6.90;;;3.77;;
51272;SDS011;37345;59.828;30.328;2022-10-17T01:09:11;3.92;;;3.28;;
51272;SDS011;37345;59.828;30.328;2022-10-17T01:16:37;5.53;;;3.35;;
51272;SDS011;37345;59.828;30.328;2022-10-17T01:24:13;3.50;;;3.03;;
51272;SDS011;37345;59.828;30.328;2022-10-17T01:34:34;4.22;;;2.78;;
51272;SDS011;37345;59.828;30.328;2022-10-17T01:42:13;6.63;;;2.60;;
51272;SDS011;37345;59.828;30.328;2022-10-17T01:47:28;7.43;;;3.75;;
51272;SDS011;37345;59.828;30.328;2022-10-17T01:50:06;5.55;;;3.85;;
51272;SDS011;37345;59.828;30.328;2022-10-17T01:52:44;6.32;;;3.40;;
51272;SDS011;37345;59.828;30.328;2022-10-17T01:55:12;5.57;;;3.00;;
51272;SDS011;37345;59.828;30.328;2022-10-17T01:57:41;5.10;;;2.50;;
51272;SDS011;37345;59.828;30.328;2022-10-17T02:00:10;3.17;;;1.80;;
51272;SDS011;37345;59.828;30.328;2022-10-17T02:02:38;3.75;;;1.80;;
51272;SDS011;37345;59.828;30.328;2022-10-17T02:05:04;1.20;;;1.08;;
51272;SDS011;37345;59.828;30.328;2022-10-17T02:07:31;2.88;;;1.10;;
51272;SDS011;37345;59.828;30.328;2022-10-17T02:09:57;2.22;;;1.35;;
51272;SDS011;37345;59.828;30.328;2022-10-17T02:23:12;2.13;;;1.20;;
51272;SDS011;37345;59.828;30.328;2022-10-17T02:25:47;1.63;;;1.20;;
51272;SDS011;37345;59.828;30.328;2022-10-17T02:28:20;2.50;;;1.50;;
51272;SDS011;37345;59.828;30.328;2022-10-17T02:31:22;2.83;;;1.35;;
51272;SDS011;37345;59.828;30.328;2022-10-17T02:33:43;2.40;;;1.58;;
51272;SDS011;37345;59.828;30.328;2022-10-17T02:36:11;5.05;;;1.90;;
51272;SDS011;37345;59.828;30.328;2022-10-17T02:38:38;4.13;;;1.70;;
51272;SDS011;37345;59.828;30.328;2022-10-17T02:41:05;2.58;;;1.60;;
51272;SDS011;37345;59.828;30.328;2022-10-17T02:43:33;2.03;;;1.50;;
51272;SDS011;37345;59.828;30.328;2022-10-17T02:46:01;2.28;;;1.40;;
51272;SDS011;37345;59.828;30.328;2022-10-17T02:48:29;5.57;;;1.30;;
51272;SDS011;37345;59.828;30.328;2022-10-17T02:53:34;3.80;;;1.17;;
51272;SDS011;37345;59.828;30.328;2022-10-17T02:56:03;3.17;;;1.35;;
51272;SDS011;37345;59.828;30.328;2022-10-17T02:58:31;2.45;;;1.60;;
51272;SDS011;37345;59.828;30.328;2022-10-17T03:00:58;3.00;;;1.60;;
51272;SDS011;37345;59.828;30.328;2022-10-17T03:03:25;2.97;;;1.63;;
51272;SDS011;37345;59.828;30.328;2022-10-17T03:05:52;4.40;;;1.70;;
51272;SDS011;37345;59.828;30.328;2022-10-17T03:08:19;2.85;;;1.20;;
51272;SDS011;37345;59.828;30.328;2022-10-17T03:10:45;3.60;;;1.10;;
51272;SDS011;37345;59.828;30.328;2022-10-17T03:13:11;2.72;;;1.10;;
51272;SDS011;37345;59.828;30.328;2022-10-17T03:15:37;4.22;;;1.23;;
51272;SDS011;37345;59.828;30.328;2022-10-17T03:18:03;4.05;;;1.55;;
51272;SDS011;37345;59.828;30.328;2022-10-17T03:20:29;3.65;;;1.30;;
51272;SDS011;37345;59.828;30.328;2022-10-17T03:22:55;2.07;;;1.43;;
51272;SDS011;37345;59.828;30.328;2022-10-17T03:25:22;2.97;;;1.00;;
51272;SDS011;37345;59.828;30.328;2022-10-17T03:27:48;3.03;;;1.15;;
51272;SDS011;37345;59.828;30.328;2022-10-17T03:30:14;3.00;;;1.10;;
51272;SDS011;37345;59.828;30.328;2022-10-17T03:32:43;4.38;;;1.38;;
51272;SDS011;37345;59.828;30.328;2022-10-17T03:35:09;2.88;;;1.50;;
51272;SDS011;37345;59.828;30.328;2022-10-17T03:37:35;4.85;;;1.98;;
51272;SDS011;37345;59.828;30.328;2022-10-17T03:40:01;3.37;;;1.40;;
51272;SDS011;37345;59.828;30.328;2022-10-17T03:42:28;1.58;;;1.05;;
51272;SDS011;37345;59.828;30.328;2022-10-17T03:44:54;2.58;;;1.20;;
51272;SDS011;37345;59.828;30.328;2022-10-17T03:47:20;3.47;;;1.23;;
51272;SDS011;37345;59.828;30.328;2022-10-17T03:49:46;3.45;;;1.17;;
51272;SDS011;37345;59.828;30.328;2022-10-17T03:52:12;3.17;;;1.10;;
51272;SDS011;37345;59.828;30.328;2022-10-17T03:54:38;5.88;;;1.30;;
51272;SDS011;37345;59.828;30.328;2022-10-17T03:57:04;3.17;;;1.20;;
51272;SDS011;37345;59.828;30.328;2022-10-17T03:59:31;3.35;;;1.33;;
51272;SDS011;37345;59.828;30.328;2022-10-17T04:01:59;5.38;;;1.42;;
51272;SDS011;37345;59.828;30.328;2022-10-17T04:04:25;2.33;;;1.30;;
51272;SDS011;37345;59.828;30.328;2022-10-17T04:06:51;7.15;;;2.78;;
51272;SDS011;37345;59.828;30.328;2022-10-17T04:09:17;4.70;;;1.60;;
51272;SDS011;37345;59.828;30.328;2022-10-17T04:11:44;6.60;;;1.45;;
51272;SDS011;37345;59.828;30.328;2022-10-17T04:14:10;3.38;;;1.52;;
51272;SDS011;37345;59.828;30.328;2022-10-17T04:16:37;5.22;;;1.88;;
51272;SDS011;37345;59.828;30.328;2022-10-17T04:19:03;2.80;;;1.73;;
51272;SDS011;37345;59.828;30.328;2022-10-17T04:21:29;4.18;;;1.65;;
51272;SDS011;37345;59.828;30.328;2022-10-17T04:23:56;2.97;;;1.33;;
51272;SDS011;37345;59.828;30.328;2022-10-17T04:26:23;6.07;;;1.60;;
51272;SDS011;37345;59.828;30.328;2022-10-17T04:28:50;3.72;;;1.40;;
51272;SDS011;37345;59.828;30.328;2022-10-17T04:31:16;8.27;;;3.42;;
51272;SDS011;37345;59.828;30.328;2022-10-17T04:33:46;3.10;;;1.75;;
51272;SDS011;37345;59.828;30.328;2022-10-17T04:36:14;4.82;;;1.95;;
51272;SDS011;37345;59.828;30.328;2022-10-17T04:38:40;6.13;;;1.60;;
51272;SDS011;37345;59.828;30.328;2022-10-17T04:41:08;5.17;;;1.80;;
51272;SDS011;37345;59.828;30.328;2022-10-17T04:43:36;3.83;;;1.55;;
51272;SDS011;37345;59.828;30.328;2022-10-17T04:46:03;6.32;;;1.65;;
51272;SDS011;37345;59.828;30.328;2022-10-17T04:48:30;2.33;;;1.50;;
51272;SDS011;37345;59.828;30.328;2022-10-17T04:50:57;6.00;;;2.22;;
51272;SDS011;37345;59.828;30.328;2022-10-17T04:53:23;7.40;;;2.75;;
51272;SDS011;37345;59.828;30.328;2022-10-17T04:55:50;3.30;;;2.03;;
51272;SDS011;37345;59.828;30.328;2022-10-17T04:58:17;6.43;;;1.60;;
51272;SDS011;37345;59.828;30.328;2022-10-17T05:00:43;4.47;;;0.85;;
51272;SDS011;37345;59.828;30.328;2022-10-17T05:03:09;4.38;;;1.05;;
51272;SDS011;37345;59.828;30.328;2022-10-17T05:05:36;3.22;;;0.90;;
51272;SDS011;37345;59.828;30.328;2022-10-17T05:08:03;4.23;;;1.53;;
51272;SDS011;37345;59.828;30.328;2022-10-17T05:10:29;4.78;;;1.08;;
51272;SDS011;37345;59.828;30.328;2022-10-17T05:12:55;8.10;;;1.70;;
51272;SDS011;37345;59.828;30.328;2022-10-17T05:15:21;5.53;;;1.20;;
51272;SDS011;37345;59.828;30.328;2022-10-17T05:17:47;4.28;;;1.50;;
51272;SDS011;37345;59.828;30.328;2022-10-17T05:20:13;4.75;;;1.27;;
51272;SDS011;37345;59.828;30.328;2022-10-17T05:22:39;3.97;;;1.27;;
51272;SDS011;37345;59.828;30.328;2022-10-17T05:25:06;4.45;;;1.25;;
51272;SDS011;37345;59.828;30.328;2022-10-17T05:27:32;3.53;;;1.35;;
51272;SDS011;37345;59.828;30.328;2022-10-17T05:29:58;4.93;;;1.25;;
51272;SDS011;37345;59.828;30.328;2022-10-17T05:32:24;3.22;;;1.52;;
51272;SDS011;37345;59.828;30.328;2022-10-17T05:34:50;5.13;;;1.10;;
51272;SDS011;37345;59.828;30.328;2022-10-17T05:37:16;3.70;;;1.13;;
51272;SDS011;37345;59.828;30.328;2022-10-17T05:39:42;4.70;;;0.98;;
51272;SDS011;37345;59.828;30.328;2022-10-17T05:42:09;2.43;;;0.60;;
51272;SDS011;37345;59.828;30.328;2022-10-17T05:44:35;1.55;;;0.60;;
51272;SDS011;37345;59.828;30.328;2022-10-17T05:47:03;2.10;;;0.90;;
51272;SDS011;37345;59.828;30.328;2022-10-17T05:49:29;0.90;;;0.30;;
51272;SDS011;37345;59.828;30.328;2022-10-17T05:51:55;6.15;;;0.88;;
51272;SDS011;37345;59.828;30.328;2022-10-17T05:54:21;2.58;;;0.60;;
51272;SDS011;37345;59.828;30.328;2022-10-17T05:56:51;2.90;;;0.85;;
51272;SDS011;37345;59.828;30.328;2022-10-17T05:59:17;2.97;;;0.55;;
51272;SDS011;37345;59.828;30.328;2022-10-17T06:01:43;1.70;;;0.50;;
51272;SDS011;37345;59.828;30.328;2022-10-17T06:04:09;3.63;;;0.73;;
51272;SDS011;37345;59.828;30.328;2022-10-17T06:06:36;1.95;;;0.70;;
51272;SDS011;37345;59.828;30.328;2022-10-17T06:09:02;2.70;;;0.63;;
51272;SDS011;37345;59.828;30.328;2022-10-17T06:11:28;3.33;;;0.60;;
51272;SDS011;37345;59.828;30.328;2022-10-17T06:13:54;4.50;;;0.88;;
51272;SDS011;37345;59.828;30.328;2022-10-17T06:16:21;3.80;;;0.55;;
51272;SDS011;37345;59.828;30.328;2022-10-17T06:18:47;3.33;;;0.73;;
51272;SDS011;37345;59.828;30.328;2022-10-17T06:21:14;2.08;;;0.63;;
51272;SDS011;37345;59.828;30.328;2022-10-17T06:23:40;7.15;;;1.20;;
51272;SDS011;37345;59.828;30.328;2022-10-17T06:26:06;4.47;;;1.00;;
51272;SDS011;37345;59.828;30.328;2022-10-17T06:28:38;4.03;;;0.82;;
51272;SDS011;37345;59.828;30.328;2022-10-17T06:31:08;4.37;;;1.07;;
51272;SDS011;37345;59.828;30.328;2022-10-17T06:33:38;3.85;;;0.63;;
51272;SDS011;37345;59.828;30.328;2022-10-17T06:36:06;2.23;;;0.50;;
51272;SDS011;37345;59.828;30.328;2022-10-17T06:38:33;3.67;;;0.60;;
51272;SDS011;37345;59.828;30.328;2022-10-17T06:41:03;2.97;;;0.88;;
51272;SDS011;37345;59.828;30.328;2022-10-17T06:43:32;4.28;;;1.00;;
51272;SDS011;37345;59.828;30.328;2022-10-17T06:45:58;2.40;;;1.05;;
51272;SDS011;37345;59.828;30.328;2022-10-17T06:48:24;2.55;;;0.60;;
51272;SDS011;37345;59.828;30.328;2022-10-17T06:50:50;2.65;;;0.80;;
51272;SDS011;37345;59.828;30.328;2022-10-17T06:53:16;3.25;;;0.90;;
51272;SDS011;37345;59.828;30.328;2022-10-17T06:55:42;4.68;;;0.95;;
51272;SDS011;37345;59.828;30.328;2022-10-17T06:58:12;2.45;;;0.85;;
51272;SDS011;37345;59.828;30.328;2022-10-17T07:00:38;2.80;;;0.85;;
51272;SDS011;37345;59.828;30.328;2022-10-17T07:03:04;3.80;;;0.90;;
51272;SDS011;37345;59.828;30.328;2022-10-17T07:05:30;3.60;;;0.60;;
51272;SDS011;37345;59.828;30.328;2022-10-17T07:07:56;2.50;;;0.70;;
51272;SDS011;37345;59.828;30.328;2022-10-17T07:10:22;2.35;;;0.40;;
51272;SDS011;37345;59.828;30.328;2022-10-17T07:12:48;4.13;;;0.90;;
51272;SDS011;37345;59.828;30.328;2022-10-17T07:15:14;1.30;;;0.32;;
51272;SDS011;37345;59.828;30.328;2022-10-17T07:17:40;2.53;;;0.75;;
51272;SDS011;37345;59.828;30.328;2022-10-17T07:20:07;6.55;;;1.00;;
51272;SDS011;37345;59.828;30.328;2022-10-17T07:22:33;2.58;;;0.60;;
51272;SDS011;37345;59.828;30.328;2022-10-17T07:24:59;3.45;;;0.75;;
51272;SDS011;37345;59.828;30.328;2022-10-17T07:27:25;3.22;;;0.80;;
51272;SDS011;37345;59.828;30.328;2022-10-17T07:29:51;3.40;;;0.93;;
51272;SDS011;37345;59.828;30.328;2022-10-17T07:32:17;4.97;;;0.80;;
51272;SDS011;37345;59.828;30.328;2022-10-17T07:34:43;7.60;;;1.75;;
51272;SDS011;37345;59.828;30.328;2022-10-17T07:37:10;1.95;;;0.80;;
51272;SDS011;37345;59.828;30.328;2022-10-17T07:39:36;2.58;;;0.60;;
51272;SDS011;37345;59.828;30.328;2022-10-17T07:42:04;3.95;;;0.63;;
51272;SDS011;37345;59.828;30.328;2022-10-17T07:44:31;1.60;;;0.70;;
51272;SDS011;37345;59.828;30.328;2022-10-17T07:46:57;4.13;;;0.90;;
51272;SDS011;37345;59.828;30.328;2022-10-17T07:49:23;3.10;;;0.73;;
51272;SDS011;37345;59.828;30.328;2022-10-17T07:51:49;3.70;;;0.70;;
51272;SDS011;37345;59.828;30.328;2022-10-17T07:54:16;2.80;;;0.68;;
51272;SDS011;37345;59.828;30.328;2022-10-17T07:56:42;5.45;;;1.05;;
51272;SDS011;37345;59.828;30.328;2022-10-17T07:59:14;1.38;;;0.40;;
51272;SDS011;37345;59.828;30.328;2022-10-17T08:01:40;4.85;;;0.75;;
51272;SDS011;37345;59.828;30.328;2022-10-17T08:04:06;6.33;;;0.80;;
51272;SDS011;37345;59.828;30.328;2022-10-17T08:06:32;5.25;;;1.05;;
51272;SDS011;37345;59.828;30.328;2022-10-17T08:08:58;2.40;;;0.50;;
51272;SDS011;37345;59.828;30.328;2022-10-17T08:11:26;1.43;;;0.70;;
51272;SDS011;37345;59.828;30.328;2022-10-17T08:13:52;3.63;;;0.60;;
51272;SDS011;37345;59.828;30.328;2022-10-17T08:16:18;3.50;;;0.60;;
51272;SDS011;37345;59.828;30.328;2022-10-17T08:18:47;3.10;;;0.70;;
51272;SDS011;37345;59.828;30.328;2022-10-17T08:21:13;4.60;;;0.70;;
51272;SDS011;37345;59.828;30.328;2022-10-17T08:23:39;2.63;;;0.80;;
51272;SDS011;37345;59.828;30.328;2022-10-17T08:26:06;2.97;;;0.57;;
51272;SDS011;37345;59.828;30.328;2022-10-17T08:28:35;2.75;;;0.60;;
51272;SDS011;37345;59.828;30.328;2022-10-17T08:31:02;3.27;;;0.40;;
51272;SDS011;37345;59.828;30.328;2022-10-17T08:33:28;3.75;;;0.52;;
51272;SDS011;37345;59.828;30.328;2022-10-17T08:35:56;2.57;;;0.70;;
51272;SDS011;37345;59.828;30.328;2022-10-17T08:38:22;2.20;;;0.60;;
51272;SDS011;37345;59.828;30.328;2022-10-17T08:40:48;2.95;;;0.60;;
51272;SDS011;37345;59.828;30.328;2022-10-17T08:48:11;1.77;;;0.40;;
51272;SDS011;37345;59.828;30.328;2022-10-17T08:50:39;2.40;;;0.63;;
51272;SDS011;37345;59.828;30.328;2022-10-17T08:55:40;4.32;;;1.17;;
51272;SDS011;37345;59.828;30.328;2022-10-17T08:58:40;3.42;;;0.93;;
51272;SDS011;37345;59.828;30.328;2022-10-17T09:03:48;5.07;;;0.90;;
51272;SDS011;37345;59.828;30.328;2022-10-17T09:06:21;4.20;;;0.80;;
51272;SDS011;37345;59.828;30.328;2022-10-17T09:11:40;2.75;;;0.57;;
51272;SDS011;37345;59.828;30.328;2022-10-17T09:19:44;1.08;;;0.63;;
51272;SDS011;37345;59.828;30.328;2022-10-17T09:22:15;4.00;;;1.25;;
51272;SDS011;37345;59.828;30.328;2022-10-17T09:27:24;6.18;;;0.90;;
51272;SDS011;37345;59.828;30.328;2022-10-17T09:29:58;1.98;;;0.73;;
51272;SDS011;37345;59.828;30.328;2022-10-17T09:32:28;3.45;;;0.82;;
51272;SDS011;37345;59.828;30.328;2022-10-17T09:34:54;2.80;;;0.98;;
51272;SDS011;37345;59.828;30.328;2022-10-17T09:37:21;6.55;;;2.53;;
51272;SDS011;37345;59.828;30.328;2022-10-17T09:39:50;7.78;;;3.30;;
51272;SDS011;37345;59.828;30.328;2022-10-17T09:42:24;5.70;;;2.55;;
51272;SDS011;37345;59.828;30.328;2022-10-17T09:47:28;4.03;;;1.40;;
51272;SDS011;37345;59.828;30.328;2022-10-17T09:49:54;3.90;;;1.20;;
51272;SDS011;37345;59.828;30.328;2022-10-17T09:55:04;3.15;;;0.95;;
51272;SDS011;37345;59.828;30.328;2022-10-17T09:57:51;2.80;;;1.30;;
51272;SDS011;37345;59.828;30.328;2022-10-17T10:00:22;3.75;;;1.15;;
51272;SDS011;37345;59.828;30.328;2022-10-17T10:02:48;6.32;;;1.38;;
51272;SDS011;37345;59.828;30.328;2022-10-17T10:05:15;4.80;;;1.20;;
51272;SDS011;37345;59.828;30.328;2022-10-17T10:07:43;5.25;;;2.80;;
51272;SDS011;37345;59.828;30.328;2022-10-17T10:10:24;2.70;;;1.08;;
51272;SDS011;37345;59.828;30.328;2022-10-17T10:15:38;5.53;;;2.08;;
51272;SDS011;37345;59.828;30.328;2022-10-17T10:23:28;4.07;;;1.27;;
51272;SDS011;37345;59.828;30.328;2022-10-17T10:25:58;2.05;;;1.13;;
51272;SDS011;37345;59.828;30.328;2022-10-17T10:28:25;3.28;;;1.05;;
51272;SDS011;37345;59.828;30.328;2022-10-17T10:30:52;3.88;;;1.27;;
51272;SDS011;37345;59.828;30.328;2022-10-17T10:33:22;2.70;;;1.08;;
51272;SDS011;37345;59.828;30.328;2022-10-17T10:35:54;3.67;;;1.00;;
51272;SDS011;37345;59.828;30.328;2022-10-17T10:38:21;3.17;;;0.87;;
51272;SDS011;37345;59.828;30.328;2022-10-17T10:40:48;1.50;;;0.73;;
51272;SDS011;37345;59.828;30.328;2022-10-17T10:46:00;3.50;;;1.00;;
51272;SDS011;37345;59.828;30.328;2022-10-17T10:48:34;2.37;;;0.90;;
51272;SDS011;37345;59.828;30.328;2022-10-17T10:51:09;4.07;;;0.98;;
51272;SDS011;37345;59.828;30.328;2022-10-17T10:53:44;3.20;;;1.27;;
51272;SDS011;37345;59.828;30.328;2022-10-17T10:56:32;2.78;;;0.88;;
51272;SDS011;37345;59.828;30.328;2022-10-17T11:01:47;2.60;;;0.93;;
51272;SDS011;37345;59.828;30.328;2022-10-17T11:07:01;6.22;;;1.02;;
51272;SDS011;37345;59.828;30.328;2022-10-17T11:12:16;3.33;;;1.25;;
51272;SDS011;37345;59.828;30.328;2022-10-17T11:20:24;4.75;;;1.52;;
51272;SDS011;37345;59.828;30.328;2022-10-17T11:22:57;1.55;;;0.65;;
51272;SDS011;37345;59.828;30.328;2022-10-17T11:25:36;3.47;;;0.90;;
51272;SDS011;37345;59.828;30.328;2022-10-17T11:28:03;2.92;;;1.00;;
51272;SDS011;37345;59.828;30.328;2022-10-17T11:30:39;4.38;;;0.82;;
51272;SDS011;37345;59.828;30.328;2022-10-17T11:33:06;1.98;;;0.63;;
51272;SDS011;37345;59.828;30.328;2022-10-17T11:35:38;2.38;;;0.65;;
51272;SDS011;37345;59.828;30.328;2022-10-17T11:40:41;6.35;;;0.70;;
51272;SDS011;37345;59.828;30.328;2022-10-17T11:46:03;3.58;;;0.80;;
51272;SDS011;37345;59.828;30.328;2022-10-17T11:51:03;2.70;;;0.50;;
51272;SDS011;37345;59.828;30.328;2022-10-17T11:53:38;1.00;;;0.57;;
51272;SDS011;37345;59.828;30.328;2022-10-17T11:56:07;2.88;;;0.85;;
51272;SDS011;37345;59.828;30.328;2022-10-17T11:58:43;1.67;;;0.50;;
51272;SDS011;37345;59.828;30.328;2022-10-17T12:09:24;2.35;;;0.65;;
51272;SDS011;37345;59.828;30.328;2022-10-17T12:11:53;1.30;;;0.50;;
51272;SDS011;37345;59.828;30.328;2022-10-17T12:16:58;2.90;;;0.70;;
51272;SDS011;37345;59.828;30.328;2022-10-17T12:19:25;3.83;;;0.80;;
51272;SDS011;37345;59.828;30.328;2022-10-17T12:21:53;3.33;;;0.68;;
51272;SDS011;37345;59.828;30.328;2022-10-17T12:29:47;2.40;;;0.95;;
51272;SDS011;37345;59.828;30.328;2022-10-17T12:32:14;2.72;;;0.98;;
51272;SDS011;37345;59.828;30.328;2022-10-17T12:34:58;2.10;;;0.90;;
51272;SDS011;37345;59.828;30.328;2022-10-17T12:42:53;2.85;;;0.80;;
51272;SDS011;37345;59.828;30.328;2022-10-17T12:45:42;5.07;;;0.88;;
51272;SDS011;37345;59.828;30.328;2022-10-17T12:48:09;4.93;;;0.80;;
51272;SDS011;37345;59.828;30.328;2022-10-17T12:53:19;3.30;;;0.82;;
51272;SDS011;37345;59.828;30.328;2022-10-17T12:55:48;3.67;;;0.80;;
51272;SDS011;37345;59.828;30.328;2022-10-17T12:58:15;2.88;;;0.70;;
51272;SDS011;37345;59.828;30.328;2022-10-17T13:00:50;4.93;;;1.00;;
51272;SDS011;37345;59.828;30.328;2022-10-17T13:03:27;3.50;;;0.73;;
51272;SDS011;37345;59.828;30.328;2022-10-17T13:05:59;2.55;;;0.93;;
51272;SDS011;37345;59.828;30.328;2022-10-17T13:08:30;3.55;;;1.10;;
51272;SDS011;37345;59.828;30.328;2022-10-17T13:10:56;3.88;;;0.90;;
51272;SDS011;37345;59.828;30.328;2022-10-17T13:15:50;6.10;;;1.20;;
51272;SDS011;37345;59.828;30.328;2022-10-17T13:18:22;4.38;;;0.90;;
51272;SDS011;37345;59.828;30.328;2022-10-17T13:21:00;3.65;;;0.98;;
51272;SDS011;37345;59.828;30.328;2022-10-17T13:23:44;3.85;;;0.80;;
51272;SDS011;37345;59.828;30.328;2022-10-17T13:26:15;2.95;;;0.80;;
51272;SDS011;37345;59.828;30.328;2022-10-17T13:28:44;2.88;;;0.70;;
51272;SDS011;37345;59.828;30.328;2022-10-17T13:31:25;3.50;;;0.97;;
51272;SDS011;37345;59.828;30.328;2022-10-17T13:33:54;2.90;;;0.60;;
51272;SDS011;37345;59.828;30.328;2022-10-17T13:36:21;4.15;;;0.80;;
51272;SDS011;37345;59.828;30.328;2022-10-17T13:38:47;5.38;;;1.13;;
51272;SDS011;37345;59.828;30.328;2022-10-17T13:41:13;3.08;;;0.85;;
51272;SDS011;37345;59.828;30.328;2022-10-17T13:43:41;3.58;;;1.17;;
51272;SDS011;37345;59.828;30.328;2022-10-17T13:46:07;2.65;;;0.60;;
51272;SDS011;37345;59.828;30.328;2022-10-17T13:48:41;2.70;;;0.60;;
51272;SDS011;37345;59.828;30.328;2022-10-17T13:51:07;2.85;;;0.88;;
51272;SDS011;37345;59.828;30.328;2022-10-17T13:53:37;2.92;;;0.75;;
51272;SDS011;37345;59.828;30.328;2022-10-17T13:58:44;3.20;;;0.80;;
51272;SDS011;37345;59.828;30.328;2022-10-17T14:01:11;3.53;;;0.57;;
51272;SDS011;37345;59.828;30.328;2022-10-17T14:03:41;3.45;;;0.82;;
51272;SDS011;37345;59.828;30.328;2022-10-17T14:08:59;4.30;;;0.82;;
51272;SDS011;37345;59.828;30.328;2022-10-17T14:13:55;2.40;;;0.60;;
51272;SDS011;37345;59.828;30.328;2022-10-17T14:16:22;3.20;;;0.80;;
51272;SDS011;37345;59.828;30.328;2022-10-17T14:18:51;3.03;;;0.70;;
51272;SDS011;37345;59.828;30.328;2022-10-17T14:21:24;2.58;;;0.50;;
51272;SDS011;37345;59.828;30.328;2022-10-17T14:24:10;3.63;;;0.65;;
51272;SDS011;37345;59.828;30.328;2022-10-17T14:26:45;3.67;;;1.15;;
51272;SDS011;37345;59.828;30.328;2022-10-17T14:29:30;4.60;;;0.98;;
51272;SDS011;37345;59.828;30.328;2022-10-17T14:32:06;3.78;;;1.00;;
51272;SDS011;37345;59.828;30.328;2022-10-17T14:34:33;3.93;;;0.70;;
51272;SDS011;37345;59.828;30.328;2022-10-17T14:37:00;3.03;;;0.70;;
51272;SDS011;37345;59.828;30.328;2022-10-17T14:39:26;3.60;;;0.88;;
51272;SDS011;37345;59.828;30.328;2022-10-17T14:41:53;1.65;;;0.70;;
51272;SDS011;37345;59.828;30.328;2022-10-17T14:44:20;4.10;;;0.90;;
51272;SDS011;37345;59.828;30.328;2022-10-17T14:46:49;4.88;;;0.80;;
51272;SDS011;37345;59.828;30.328;2022-10-17T14:49:17;3.92;;;0.98;;
51272;SDS011;37345;59.828;30.328;2022-10-17T14:54:29;1.83;;;0.73;;
51272;SDS011;37345;59.828;30.328;2022-10-17T14:56:56;3.10;;;0.70;;
51272;SDS011;37345;59.828;30.328;2022-10-17T14:59:22;3.63;;;0.63;;
51272;SDS011;37345;59.828;30.328;2022-10-17T15:01:50;3.03;;;0.73;;
51272;SDS011;37345;59.828;30.328;2022-10-17T15:04:16;2.13;;;0.60;;
51272;SDS011;37345;59.828;30.328;2022-10-17T15:06:43;2.78;;;0.85;;
51272;SDS011;37345;59.828;30.328;2022-10-17T15:09:09;3.75;;;1.42;;
51272;SDS011;37345;59.828;30.328;2022-10-17T15:11:36;4.18;;;0.80;;
51272;SDS011;37345;59.828;30.328;2022-10-17T15:14:02;2.67;;;0.88;;
51272;SDS011;37345;59.828;30.328;2022-10-17T15:16:32;3.70;;;1.10;;
51272;SDS011;37345;59.828;30.328;2022-10-17T15:18:58;2.78;;;0.82;;
51272;SDS011;37345;59.828;30.328;2022-10-17T15:21:25;3.17;;;0.80;;
51272;SDS011;37345;59.828;30.328;2022-10-17T15:23:52;1.77;;;0.88;;
51272;SDS011;37345;59.828;30.328;2022-10-17T15:28:45;3.85;;;0.80;;
51272;SDS011;37345;59.828;30.328;2022-10-17T15:31:12;3.03;;;0.90;;
51272;SDS011;37345;59.828;30.328;2022-10-17T15:33:38;5.10;;;1.20;;
51272;SDS011;37345;59.828;30.328;2022-10-17T15:36:14;4.78;;;1.13;;
51272;SDS011;37345;59.828;30.328;2022-10-17T15:38:41;2.95;;;1.05;;
51272;SDS011;37345;59.828;30.328;2022-10-17T15:41:08;3.30;;;0.75;;
51272;SDS011;37345;59.828;30.328;2022-10-17T15:43:35;2.72;;;1.00;;
51272;SDS011;37345;59.828;30.328;2022-10-17T15:46:01;3.45;;;0.80;;
51272;SDS011;37345;59.828;30.328;2022-10-17T15:48:28;3.05;;;0.70;;
51272;SDS011;37345;59.828;30.328;2022-10-17T15:50:56;6.43;;;0.90;;
51272;SDS011;37345;59.828;30.328;2022-10-17T15:53:22;2.20;;;1.00;;
51272;SDS011;37345;59.828;30.328;2022-10-17T15:55:48;2.70;;;1.10;;
51272;SDS011;37345;59.828;30.328;2022-10-17T15:58:15;2.70;;;1.08;;
51272;SDS011;37345;59.828;30.328;2022-10-17T16:00:42;2.95;;;0.90;;
51272;SDS011;37345;59.828;30.328;2022-10-17T16:03:10;2.83;;;0.88;;
51272;SDS011;37345;59.828;30.328;2022-10-17T16:05:39;4.00;;;1.10;;
51272;SDS011;37345;59.828;30.328;2022-10-17T16:08:05;3.90;;;1.20;;
51272;SDS011;37345;59.828;30.328;2022-10-17T16:10:32;2.10;;;1.10;;
51272;SDS011;37345;59.828;30.328;2022-10-17T16:12:58;4.65;;;2.00;;
51272;SDS011;37345;59.828;30.328;2022-10-17T16:15:25;5.53;;;1.77;;
51272;SDS011;37345;59.828;30.328;2022-10-17T16:17:53;1.52;;;0.82;;
51272;SDS011;37345;59.828;30.328;2022-10-17T16:20:20;1.45;;;0.60;;
51272;SDS011;37345;59.828;30.328;2022-10-17T16:22:46;3.38;;;0.75;;
51272;SDS011;37345;59.828;30.328;2022-10-17T16:27:46;1.33;;;0.40;;
51272;SDS011;37345;59.828;30.328;2022-10-17T16:30:12;1.70;;;0.50;;
51272;SDS011;37345;59.828;30.328;2022-10-17T16:32:38;1.85;;;0.70;;
51272;SDS011;37345;59.828;30.328;2022-10-17T16:35:05;2.28;;;0.50;;
51272;SDS011;37345;59.828;30.328;2022-10-17T16:37:31;0.80;;;0.50;;
51272;SDS011;37345;59.828;30.328;2022-10-17T16:39:57;1.67;;;0.63;;
51272;SDS011;37345;59.828;30.328;2022-10-17T16:42:23;1.30;;;0.60;;
51272;SDS011;37345;59.828;30.328;2022-10-17T16:44:49;1.08;;;0.40;;
51272;SDS011;37345;59.828;30.328;2022-10-17T16:47:16;2.08;;;0.55;;
51272;SDS011;37345;59.828;30.328;2022-10-17T16:49:42;1.97;;;0.67;;
51272;SDS011;37345;59.828;30.328;2022-10-17T16:52:09;1.65;;;0.50;;
51272;SDS011;37345;59.828;30.328;2022-10-17T16:54:35;1.70;;;0.50;;
51272;SDS011;37345;59.828;30.328;2022-10-17T16:57:01;3.92;;;0.80;;
51272;SDS011;37345;59.828;30.328;2022-10-17T16:59:27;1.17;;;0.60;;
51272;SDS011;37345;59.828;30.328;2022-10-17T17:01:54;2.10;;;0.77;;